Putnam, Virginia
Current Conditions -  °F | °C
As of 1:35 AM on Wednesday 26 Nov 2014 (Local Time) from KJFZ Reporting Station
Overcast Overcast  
Wind Chill: 45°   Ceiling: 11000
Heat Index: 45°   Visibility: 10mi
Dew Point: 25°   Wind: 3mph
Humidity: 47%   Direction: 60°ENE
Pressure: 30.03"   Gusts: NA
Location:  37.0328°N, 82.0042°W
Report Text: KJFZ 260635Z AUTO 06003KT 10SM OVC110 07/M04 A3003 RMK AO2 T00701037
Loading
Personal Weather Stations






























Interactive Weather Map New forecast layout! Learn more

10-Day Weather Forecast

Advertisements
Track Severe Weather on mobile